Tinker Air Force Base
KTIK : now visible

Airfield :











YOU CAN JOIN US ON...

 
LOGIN :

Register | Disclaimer

   EN    FR    IT 

 









Legend :    VFR   Marginal VFR   IFR   Intensive IFR   Very Intensive IFR
Visi :
Ceiling :
>= 8 km
>= 3000ft
5 to 8 km
1000 to 3000 ft
1500m to 5 km
500 to 1000 ft
800 to 1500m
200 to 500 ft
< 800m
< 200 ft
Symbols :   Thunderstorms  Fog  Heavy snow  Heavy precipitations  Wind > 20 kt







- Airport Elevation : 1291 ft


KTIK - Tinker Air Force Base

CURRENT METAR :
  • 190856Z AUTO 18008KT 10SM CLR 26/21 A2991 RMK AO2 SLP118 T02580210 58002 $

EXPIRED METARs :
  • 190756Z AUTO 17010KT 10SM CLR 27/21 A2990 RMK AO2 SLP115 T02660213 $
  • 190656Z AUTO 17009KT 10SM CLR 27/21 A2992 RMK AO2 SLP122 T02730213 $

TAF TAF KTIK
Valid from the 19 at 09:00 until the 20 at 15:00 UTC


190900Z 1909/2015 17006KT 9999 FEW080 QNH2989INS
BECMG 1914/1915 19010G15KT 9999 FEW080 QNH2991INS
BECMG 1923/1924 16009KT 9999 SKC QNH2987INS TX37/1922Z TN25/1912Z
No reported NOTAMs for that airfield.



MET'MAP, your aeronautical weather chart ! - Copyright ORBIFLY December 2007 - Disclaimer

ORBIFLY MET'MAP TEAM :

Programming & Development : Alexandra Zaïnal
Concept & Development : Baudouin d'Aumeries
Co-Development & Prog : Marc-Olivier Méhu
Technical & hardware support : Manuel Goepfert

Contact : metmap@orbifly.com




SOURCES & CREDITS :

   NOAA       Earth
Advisory